createdAt,value
2018-08-06T00:01:33.539Z,95038.00
2018-08-06T00:04:04.098Z,95037.00
2018-08-06T00:06:34.945Z,95036.00
2018-08-06T00:09:07.868Z,95032.00
2018-08-06T00:11:38.899Z,95030.00
2018-08-06T00:14:10.130Z,95029.00
2018-08-06T00:16:41.329Z,95032.00
2018-08-06T00:19:12.279Z,95028.00
2018-08-06T00:21:43.287Z,95029.00
2018-08-06T00:24:14.315Z,95030.00
2018-08-06T00:26:45.257Z,95033.00
2018-08-06T00:29:16.248Z,95031.00
2018-08-06T00:31:47.352Z,95030.00
2018-08-06T00:34:18.234Z,95033.00
2018-08-06T00:36:49.138Z,95030.00
2018-08-06T00:39:20.045Z,95034.00
2018-08-06T00:41:51.002Z,95032.00
2018-08-06T00:44:21.974Z,95031.00
2018-08-06T00:46:52.870Z,95030.00
2018-08-06T00:49:23.131Z,95030.00
2018-08-06T00:51:53.877Z,95023.00
2018-08-06T00:54:24.751Z,95025.00
2018-08-06T00:56:55.631Z,95024.00
2018-08-06T00:59:26.397Z,95025.00
2018-08-06T01:01:57.635Z,95024.00
2018-08-06T01:04:28.818Z,95020.00
2018-08-06T01:07:05.273Z,95023.00
2018-08-06T01:09:36.160Z,95018.00
2018-08-06T01:12:07.367Z,95021.00
2018-08-06T01:14:38.281Z,95024.00
2018-08-06T01:17:09.152Z,95019.00
2018-08-06T01:19:40.160Z,95020.00
2018-08-06T01:22:11.338Z,95020.00
2018-08-06T01:24:42.156Z,95016.00
2018-08-06T01:27:13.290Z,95020.00
2018-08-06T01:29:44.073Z,95015.00
2018-08-06T01:32:14.901Z,95013.00
2018-08-06T01:34:45.944Z,95019.00
2018-08-06T01:37:17.047Z,95019.00
2018-08-06T01:39:48.073Z,95016.00
2018-08-06T01:42:18.923Z,95020.00
2018-08-06T01:44:49.702Z,95015.00
2018-08-06T01:47:20.668Z,95016.00
2018-08-06T01:49:51.781Z,95011.00
2018-08-06T01:52:22.651Z,95009.00
2018-08-06T01:54:53.640Z,95009.00
2018-08-06T01:57:24.595Z,95011.00
2018-08-06T01:59:55.642Z,95012.00
2018-08-06T02:02:26.073Z,95018.00
2018-08-06T02:04:57.054Z,95022.00
2018-08-06T02:07:27.990Z,95025.00
2018-08-06T02:09:58.924Z,95026.00
2018-08-06T02:12:29.608Z,95028.00
2018-08-06T02:14:59.991Z,95031.00
2018-08-06T02:17:30.750Z,95030.00
2018-08-06T02:20:01.581Z,95032.00
2018-08-06T02:22:32.568Z,95033.00
2018-08-06T02:25:03.588Z,95031.00
2018-08-06T02:27:34.409Z,95031.00
2018-08-06T02:30:07.590Z,95035.00
2018-08-06T02:32:38.639Z,95037.00
2018-08-06T02:35:12.002Z,95040.00
2018-08-06T02:37:43.367Z,95041.00
2018-08-06T02:40:17.929Z,95038.00
2018-08-06T02:42:48.936Z,95035.00
2018-08-06T02:45:20.065Z,95038.00
2018-08-06T02:47:50.980Z,95043.00
2018-08-06T02:50:21.822Z,95045.00
2018-08-06T02:52:52.818Z,95052.00
2018-08-06T02:55:23.852Z,95054.00
2018-08-06T02:57:54.793Z,95049.00
2018-08-06T03:00:25.625Z,95048.00
2018-08-06T03:02:56.333Z,95055.00
2018-08-06T03:05:27.381Z,95060.00
2018-08-06T03:07:58.267Z,95056.00
2018-08-06T03:10:29.216Z,95054.00
2018-08-06T03:13:00.037Z,95056.00
2018-08-06T03:15:30.901Z,95060.00
2018-08-06T03:18:01.692Z,95059.00
2018-08-06T03:20:32.664Z,95059.00
2018-08-06T03:23:03.455Z,95064.00
2018-08-06T03:25:34.326Z,95068.00
2018-08-06T03:28:05.367Z,95067.00
2018-08-06T03:30:36.250Z,95071.00
2018-08-06T03:33:07.285Z,95058.00
2018-08-06T03:35:38.252Z,95069.00
2018-08-06T03:38:09.639Z,95070.00
2018-08-06T03:40:41.258Z,95071.00
2018-08-06T03:43:12.204Z,95067.00
2018-08-06T03:45:43.256Z,95064.00
2018-08-06T03:48:14.364Z,95066.00
2018-08-06T03:50:45.572Z,95066.00
2018-08-06T03:53:16.615Z,95065.00
2018-08-06T03:55:47.588Z,95071.00
2018-08-06T03:58:18.875Z,95076.00
2018-08-06T04:00:50.085Z,95074.00
2018-08-06T04:03:20.879Z,95070.00
2018-08-06T04:05:51.778Z,95068.00
2018-08-06T04:08:22.757Z,95070.00
2018-08-06T04:10:53.790Z,95070.00
2018-08-06T04:13:25.053Z,95071.00
2018-08-06T04:15:56.575Z,95075.00
2018-08-06T04:18:27.628Z,95071.00
2018-08-06T04:20:58.472Z,95081.00
2018-08-06T04:23:29.488Z,95075.00
2018-08-06T04:26:00.418Z,95076.00
2018-08-06T04:28:31.660Z,95081.00
2018-08-06T04:31:02.240Z,95086.00
2018-08-06T04:33:33.271Z,95091.00
2018-08-06T04:36:04.350Z,95092.00
2018-08-06T04:38:35.307Z,95086.00
2018-08-06T04:41:06.347Z,95090.00
2018-08-06T04:43:37.420Z,95094.00
2018-08-06T04:46:08.567Z,95100.00
2018-08-06T04:48:39.633Z,95101.00
2018-08-06T04:51:10.802Z,95102.00
2018-08-06T04:53:42.059Z,95096.00
2018-08-06T04:56:13.187Z,95104.00
2018-08-06T04:58:44.713Z,95103.00
2018-08-06T05:01:17.926Z,95109.00
2018-08-06T05:03:50.819Z,95116.00
2018-08-06T05:06:31.247Z,95114.00
2018-08-06T05:09:09.220Z,95108.00
2018-08-06T05:11:50.021Z,95109.00
2018-08-06T05:14:34.847Z,95111.00
2018-08-06T05:17:09.115Z,95116.00
2018-08-06T05:19:46.860Z,95111.00
2018-08-06T05:22:28.797Z,95110.00
2018-08-06T05:25:06.141Z,95109.00
2018-08-06T05:27:44.958Z,95110.00
2018-08-06T05:33:23.125Z,95118.00
2018-08-06T05:36:06.356Z,95113.00
2018-08-06T05:38:46.723Z,95117.00
2018-08-06T05:41:21.768Z,95123.00
2018-08-06T05:44:04.427Z,95124.00
2018-08-06T05:46:47.570Z,95119.00
2018-08-06T05:49:38.379Z,95120.00
2018-08-06T05:55:12.913Z,95117.00
2018-08-06T05:57:57.278Z,95114.00
2018-08-06T06:00:41.708Z,95119.00
2018-08-06T06:03:20.813Z,95119.00
2018-08-06T06:06:06.962Z,95121.00
2018-08-06T06:09:01.277Z,95126.00
2018-08-06T06:14:35.483Z,95125.00
2018-08-06T06:17:15.310Z,95127.00
2018-08-06T06:20:03.104Z,95126.00
2018-08-06T06:22:44.010Z,95128.00
2018-08-06T06:25:33.815Z,95129.00
2018-08-06T06:28:22.434Z,95129.00
2018-08-06T06:31:02.192Z,95127.00
2018-08-06T06:33:40.732Z,95126.00
2018-08-06T06:36:16.790Z,95125.00
2018-08-06T06:41:34.061Z,95117.00
2018-08-06T06:44:12.982Z,95125.00
2018-08-06T06:46:53.288Z,95122.00
2018-08-06T06:49:24.574Z,95121.00
2018-08-06T06:51:56.230Z,95115.00
2018-08-06T06:54:27.164Z,95111.00
2018-08-06T06:56:58.689Z,95111.00
2018-08-06T06:59:30.423Z,95109.00
2018-08-06T07:02:02.091Z,95106.00
2018-08-06T07:04:35.172Z,95107.00
2018-08-06T07:07:06.917Z,95110.00
2018-08-06T07:09:39.384Z,95111.00
2018-08-06T07:12:11.417Z,95109.00
2018-08-06T07:14:42.908Z,95112.00
2018-08-06T07:17:14.177Z,95104.00
2018-08-06T07:19:45.622Z,95102.00
2018-08-06T07:22:17.008Z,95096.00
2018-08-06T07:24:47.727Z,95101.00
2018-08-06T07:27:20.052Z,95106.00
2018-08-06T07:29:51.705Z,95103.00
2018-08-06T07:32:23.980Z,95104.00
2018-08-06T07:34:55.371Z,95096.00
2018-08-06T07:37:26.543Z,95096.00
2018-08-06T07:39:57.337Z,95104.00
2018-08-06T07:42:28.148Z,95100.00
2018-08-06T07:44:59.495Z,95097.00
2018-08-06T07:47:30.952Z,95101.00
2018-08-06T07:50:01.895Z,95102.00
2018-08-06T07:52:33.393Z,95107.00
2018-08-06T07:55:05.492Z,95102.00
2018-08-06T07:57:37.927Z,95099.00
2018-08-06T08:00:14.822Z,95100.00
2018-08-06T08:02:46.159Z,95104.00
2018-08-06T08:05:18.715Z,95102.00
2018-08-06T08:07:51.943Z,95100.00
2018-08-06T08:10:24.898Z,95100.00
2018-08-06T08:12:56.349Z,95102.00
2018-08-06T08:15:29.785Z,95101.00
2018-08-06T08:18:02.651Z,95102.00
2018-08-06T08:20:36.191Z,95099.00
2018-08-06T08:23:08.306Z,95094.00
2018-08-06T08:25:41.356Z,95090.00
2018-08-06T08:28:12.933Z,95092.00
2018-08-06T08:30:47.334Z,95091.00
2018-08-06T08:33:18.292Z,95085.00
2018-08-06T08:35:50.538Z,95085.00
2018-08-06T08:38:22.895Z,95083.00
2018-08-06T08:40:54.840Z,95080.00
2018-08-06T08:43:26.780Z,95076.00
2018-08-06T08:45:58.529Z,95077.00
2018-08-06T08:48:29.361Z,95074.00
2018-08-06T08:51:01.231Z,95074.00
2018-08-06T08:53:32.696Z,95077.00
2018-08-06T08:56:04.136Z,95068.00
2018-08-06T08:58:36.090Z,95067.00
2018-08-06T09:01:07.644Z,95057.00
2018-08-06T09:03:38.931Z,95059.00
2018-08-06T09:06:11.980Z,95057.00
2018-08-06T09:08:43.423Z,95053.00
2018-08-06T09:11:15.766Z,95053.00
2018-08-06T09:13:47.032Z,95053.00
2018-08-06T09:16:18.316Z,95051.00
2018-08-06T09:18:53.319Z,95048.00
2018-08-06T09:21:24.523Z,95051.00
2018-08-06T09:23:56.429Z,95044.00
2018-08-06T09:26:28.676Z,95043.00
2018-08-06T09:29:01.335Z,95043.00
2018-08-06T09:31:35.165Z,95037.00
2018-08-06T09:34:12.100Z,95041.00
2018-08-06T09:36:45.510Z,95037.00
2018-08-06T09:39:17.007Z,95032.00
2018-08-06T09:41:48.646Z,95031.00
2018-08-06T09:44:21.140Z,95025.00
2018-08-06T09:46:54.390Z,95023.00
2018-08-06T09:49:25.993Z,95019.00
2018-08-06T09:52:01.359Z,95013.00
2018-08-06T09:54:33.460Z,95009.00
2018-08-06T09:57:05.225Z,95010.00
2018-08-06T09:59:36.628Z,95005.00
2018-08-06T10:02:09.374Z,95003.00
2018-08-06T10:04:41.729Z,94999.00
2018-08-06T10:07:12.841Z,94997.00
2018-08-06T10:09:43.991Z,94994.00
2018-08-06T10:12:15.988Z,94987.00
2018-08-06T10:14:48.657Z,94984.00
2018-08-06T10:17:20.140Z,94985.00
2018-08-06T10:19:50.840Z,94988.00
2018-08-06T10:22:22.203Z,94986.00
2018-08-06T10:24:53.553Z,94982.00
2018-08-06T10:27:25.246Z,94975.00
2018-08-06T10:29:56.816Z,94974.00
2018-08-06T10:32:27.452Z,94976.00
2018-08-06T10:34:59.310Z,94975.00
2018-08-06T10:37:31.889Z,94975.00
2018-08-06T10:40:03.928Z,94970.00
2018-08-06T10:42:35.330Z,94972.00
2018-08-06T10:45:11.152Z,94969.00
2018-08-06T10:47:43.608Z,94965.00
2018-08-06T10:50:16.544Z,94956.00
2018-08-06T10:52:48.673Z,94950.00
2018-08-06T10:55:19.857Z,94947.00
2018-08-06T10:57:51.227Z,94946.00
2018-08-06T11:00:24.830Z,94936.00
2018-08-06T11:02:56.335Z,94939.00
2018-08-06T11:05:27.953Z,94937.00
2018-08-06T11:08:00.016Z,94940.00
2018-08-06T11:10:33.556Z,94936.00
2018-08-06T11:13:05.669Z,94934.00
2018-08-06T11:15:37.138Z,94928.00
2018-08-06T11:18:10.950Z,94930.00
2018-08-06T11:20:44.023Z,94934.00
2018-08-06T11:23:17.347Z,94926.00
2018-08-06T11:25:49.967Z,94922.00
2018-08-06T11:28:21.948Z,94918.00
2018-08-06T11:30:53.820Z,94921.00
2018-08-06T11:33:25.922Z,94919.00
2018-08-06T11:35:57.340Z,94910.00
2018-08-06T11:38:29.095Z,94912.00
2018-08-06T11:41:03.742Z,94913.00
2018-08-06T11:43:36.435Z,94917.00
2018-08-06T11:46:08.478Z,94908.00
2018-08-06T11:48:44.446Z,94902.00
2018-08-06T11:51:16.201Z,94899.00
2018-08-06T11:53:48.348Z,94902.00
2018-08-06T11:56:19.875Z,94896.00
2018-08-06T11:58:53.323Z,94887.00
2018-08-06T12:01:24.825Z,94892.00
2018-08-06T12:03:58.093Z,94885.00
2018-08-06T12:06:30.531Z,94881.00
2018-08-06T12:09:03.974Z,94882.00
2018-08-06T12:11:37.322Z,94883.00
2018-08-06T12:14:11.302Z,94882.00
2018-08-06T12:16:43.899Z,94878.00
2018-08-06T12:19:26.360Z,94871.00
2018-08-06T12:21:59.472Z,94871.00
2018-08-06T12:24:32.260Z,94866.00
2018-08-06T12:27:05.516Z,94866.00
2018-08-06T12:29:41.656Z,94863.00
2018-08-06T12:32:14.286Z,94856.00
2018-08-06T12:34:48.696Z,94856.00
2018-08-06T12:37:20.361Z,94857.00
2018-08-06T12:39:52.374Z,94856.00
2018-08-06T12:42:26.281Z,94850.00
2018-08-06T12:45:01.277Z,94843.00
2018-08-06T12:47:33.271Z,94842.00
2018-08-06T12:50:04.470Z,94844.00
2018-08-06T12:52:39.002Z,94843.00
2018-08-06T12:55:13.515Z,94844.00
2018-08-06T12:57:46.640Z,94843.00
2018-08-06T13:00:25.894Z,94842.00
2018-08-06T13:03:00.748Z,94844.00
2018-08-06T13:05:33.757Z,94840.00
2018-08-06T13:08:04.749Z,94836.00
2018-08-06T13:10:36.770Z,94830.00
2018-08-06T13:13:07.712Z,94827.00
2018-08-06T13:15:40.657Z,94829.00
2018-08-06T13:18:13.435Z,94824.00
2018-08-06T13:20:47.457Z,94823.00
2018-08-06T13:23:19.767Z,94822.00
2018-08-06T13:25:52.873Z,94817.00
2018-08-06T13:28:24.747Z,94817.00
2018-08-06T13:30:56.536Z,94818.00
2018-08-06T13:33:28.413Z,94813.00
2018-08-06T13:36:01.049Z,94812.00
2018-08-06T13:38:34.241Z,94809.00
2018-08-06T13:41:06.148Z,94810.00
2018-08-06T13:43:38.531Z,94806.00
2018-08-06T13:46:13.217Z,94810.00
2018-08-06T13:48:46.421Z,94806.00
2018-08-06T13:51:20.591Z,94801.00
2018-08-06T13:53:54.611Z,94806.00
2018-08-06T13:56:30.566Z,94802.00
2018-08-06T13:59:03.309Z,94800.00
2018-08-06T14:01:39.390Z,94802.00
2018-08-06T14:04:18.232Z,94796.00
2018-08-06T14:06:51.757Z,94794.00
2018-08-06T14:09:23.993Z,94799.00
2018-08-06T14:11:56.151Z,94793.00
2018-08-06T14:14:27.891Z,94795.00
2018-08-06T14:17:00.066Z,94791.00
2018-08-06T14:19:31.520Z,94793.00
2018-08-06T14:22:03.435Z,94789.00
2018-08-06T14:24:35.133Z,94789.00
2018-08-06T14:27:07.776Z,94790.00
2018-08-06T14:29:39.811Z,94790.00
2018-08-06T14:32:10.877Z,94794.00
2018-08-06T14:34:44.460Z,94788.00
2018-08-06T14:37:22.195Z,94790.00
2018-08-06T14:39:58.227Z,94791.00
2018-08-06T14:42:34.098Z,94792.00
2018-08-06T14:45:11.078Z,94790.00
2018-08-06T14:47:44.644Z,94792.00
2018-08-06T14:50:18.366Z,94789.00
2018-08-06T14:52:51.653Z,94789.00
2018-08-06T14:55:23.512Z,94783.00
2018-08-06T14:57:56.909Z,94781.00
2018-08-06T15:00:28.492Z,94779.00
2018-08-06T15:02:59.256Z,94785.00
2018-08-06T15:05:30.646Z,94788.00
2018-08-06T15:08:02.098Z,94789.00
2018-08-06T15:10:33.704Z,94787.00
2018-08-06T15:13:05.043Z,94793.00
2018-08-06T15:15:38.295Z,94795.00
2018-08-06T15:18:26.103Z,94795.00
2018-08-06T15:21:02.887Z,94795.00
2018-08-06T15:23:41.663Z,94793.00
2018-08-06T15:26:16.821Z,94788.00
2018-08-06T15:28:50.249Z,94792.00
2018-08-06T15:31:24.368Z,94798.00
2018-08-06T15:34:01.445Z,94795.00
2018-08-06T15:36:35.116Z,94795.00
2018-08-06T15:39:16.225Z,94798.00
2018-08-06T15:41:51.220Z,94800.00
2018-08-06T15:44:25.007Z,94805.00
2018-08-06T15:47:00.692Z,94799.00
2018-08-06T15:49:34.149Z,94804.00
2018-08-06T15:52:08.368Z,94801.00
2018-08-06T15:54:42.290Z,94805.00
2018-08-06T15:57:16.008Z,94805.00
2018-08-06T15:59:48.440Z,94805.00
2018-08-06T16:02:23.202Z,94809.00
2018-08-06T16:04:57.515Z,94807.00
2018-08-06T16:07:30.302Z,94809.00
2018-08-06T16:10:04.827Z,94810.00
2018-08-06T16:12:37.698Z,94809.00
2018-08-06T16:15:16.067Z,94815.00
2018-08-06T16:17:52.963Z,94815.00
2018-08-06T16:20:26.794Z,94819.00
2018-08-06T16:23:01.635Z,94821.00
2018-08-06T16:25:34.828Z,94818.00
2018-08-06T16:28:09.224Z,94820.00
2018-08-06T16:30:48.605Z,94827.00
2018-08-06T16:33:23.929Z,94825.00
2018-08-06T16:35:59.958Z,94823.00
2018-08-06T16:38:31.509Z,94828.00
2018-08-06T16:41:04.700Z,94833.00
2018-08-06T16:43:39.111Z,94830.00
2018-08-06T16:46:15.795Z,94833.00
2018-08-06T16:48:48.564Z,94835.00
2018-08-06T16:51:20.489Z,94832.00
2018-08-06T16:53:53.876Z,94835.00
2018-08-06T16:56:25.468Z,94840.00
2018-08-06T16:58:57.095Z,94840.00
2018-08-06T17:01:30.622Z,94842.00
2018-08-06T17:04:02.307Z,94842.00
2018-08-06T17:06:34.003Z,94850.00
2018-08-06T17:09:09.763Z,94850.00
2018-08-06T17:11:41.041Z,94850.00
2018-08-06T17:14:12.344Z,94854.00
2018-08-06T17:16:43.750Z,94860.00
2018-08-06T17:19:16.253Z,94864.00
2018-08-06T17:21:48.833Z,94858.00
2018-08-06T17:24:21.767Z,94855.00
2018-08-06T17:26:54.997Z,94860.00
2018-08-06T17:29:27.037Z,94862.00
2018-08-06T17:31:58.932Z,94865.00
2018-08-06T17:34:31.026Z,94862.00
2018-08-06T17:37:05.183Z,94867.00
2018-08-06T17:39:38.732Z,94872.00
2018-08-06T17:42:11.920Z,94871.00
2018-08-06T17:44:47.120Z,94876.00
2018-08-06T17:47:23.818Z,94877.00
2018-08-06T17:50:00.985Z,94882.00
2018-08-06T17:52:34.338Z,94884.00
2018-08-06T17:55:06.484Z,94884.00
2018-08-06T17:57:40.508Z,94888.00
2018-08-06T18:00:14.979Z,94892.00
2018-08-06T18:02:51.451Z,94898.00
2018-08-06T18:05:28.582Z,94902.00
2018-08-06T18:08:03.009Z,94902.00
2018-08-06T18:10:37.421Z,94908.00
2018-08-06T18:13:11.191Z,94909.00
2018-08-06T18:15:44.138Z,94919.00
2018-08-06T18:18:20.107Z,94917.00
2018-08-06T18:21:00.637Z,94922.00
2018-08-06T18:23:34.547Z,94933.00
2018-08-06T18:26:12.358Z,94930.00
2018-08-06T18:28:49.511Z,94934.00
2018-08-06T18:31:26.642Z,94933.00
2018-08-06T18:33:59.043Z,94935.00
2018-08-06T18:36:33.421Z,94934.00
2018-08-06T18:39:12.459Z,94940.00
2018-08-06T18:41:45.167Z,94940.00
2018-08-06T18:44:18.326Z,94941.00
2018-08-06T18:46:52.401Z,94941.00
2018-08-06T18:49:26.941Z,94944.00
2018-08-06T18:51:59.209Z,94949.00
2018-08-06T18:54:37.427Z,94947.00
2018-08-06T18:57:09.473Z,94946.00
2018-08-06T18:59:43.251Z,94956.00
2018-08-06T19:02:18.084Z,94957.00
2018-08-06T19:04:56.312Z,94957.00
2018-08-06T19:07:33.040Z,94957.00
2018-08-06T19:10:06.492Z,94955.00
2018-08-06T19:12:46.204Z,94957.00
2018-08-06T19:15:19.765Z,94963.00
2018-08-06T19:17:57.118Z,94960.00
2018-08-06T19:20:28.517Z,94964.00
2018-08-06T19:22:59.921Z,94965.00
2018-08-06T19:25:32.551Z,94966.00
2018-08-06T19:28:04.169Z,94968.00
2018-08-06T19:30:40.520Z,94967.00
2018-08-06T19:33:12.435Z,94967.00
2018-08-06T19:35:45.594Z,94968.00
2018-08-06T19:38:19.680Z,94968.00
2018-08-06T19:40:51.686Z,94971.00
2018-08-06T19:43:30.531Z,94971.00
2018-08-06T19:46:03.589Z,94970.00
2018-08-06T19:48:35.290Z,94966.00
2018-08-06T19:51:07.435Z,94965.00
2018-08-06T19:53:39.300Z,94965.00
2018-08-06T19:56:16.615Z,94970.00
2018-08-06T19:58:49.946Z,94968.00
2018-08-06T20:01:22.609Z,94970.00
2018-08-06T20:03:55.873Z,94969.00
2018-08-06T20:06:28.039Z,94972.00
2018-08-06T20:09:00.349Z,94966.00
2018-08-06T20:11:31.746Z,94963.00
2018-08-06T20:14:03.488Z,94975.00
2018-08-06T20:16:36.181Z,94974.00
2018-08-06T20:19:10.503Z,94972.00
2018-08-06T20:21:42.769Z,94978.00
2018-08-06T20:24:16.285Z,94985.00
2018-08-06T20:26:48.383Z,94978.00
2018-08-06T20:29:20.869Z,94983.00
2018-08-06T20:31:52.702Z,94980.00
2018-08-06T20:34:26.766Z,94983.00
2018-08-06T20:36:58.405Z,94972.00
2018-08-06T20:39:31.553Z,94976.00
2018-08-06T20:42:03.855Z,94982.00
2018-08-06T20:44:38.455Z,94983.00
2018-08-06T20:47:09.694Z,94983.00
2018-08-06T20:49:41.658Z,94985.00
2018-08-06T20:52:13.291Z,94988.00
2018-08-06T20:54:45.032Z,94989.00
2018-08-06T20:57:16.298Z,94991.00
2018-08-06T20:59:49.205Z,94991.00
2018-08-06T21:02:22.246Z,95000.00
2018-08-06T21:04:54.324Z,94996.00
2018-08-06T21:07:26.644Z,94998.00
2018-08-06T21:10:04.482Z,94994.00
2018-08-06T21:12:36.085Z,94997.00
2018-08-06T21:15:08.740Z,94995.00
2018-08-06T21:17:40.427Z,94998.00
2018-08-06T21:20:16.281Z,95000.00
2018-08-06T21:22:49.970Z,94993.00
2018-08-06T21:25:22.368Z,94993.00
2018-08-06T21:27:54.956Z,94992.00
2018-08-06T21:30:26.367Z,94992.00
2018-08-06T21:32:59.038Z,94993.00
2018-08-06T21:35:30.452Z,94994.00
2018-08-06T21:38:01.682Z,94993.00
2018-08-06T21:40:33.144Z,94995.00
2018-08-06T21:43:04.658Z,95000.00
2018-08-06T21:45:38.164Z,95002.00
2018-08-06T21:48:12.041Z,94997.00
2018-08-06T21:50:43.457Z,95003.00
2018-08-06T21:53:14.793Z,95007.00
2018-08-06T21:55:45.510Z,95005.00
2018-08-06T21:58:17.703Z,95007.00
2018-08-06T22:00:49.333Z,95006.00
2018-08-06T22:03:21.847Z,95010.00
2018-08-06T22:05:52.837Z,95010.00
2018-08-06T22:08:23.910Z,95005.00
2018-08-06T22:10:55.220Z,95002.00
2018-08-06T22:13:26.525Z,95001.00
2018-08-06T22:15:57.985Z,95003.00
2018-08-06T22:18:29.078Z,95000.00
2018-08-06T22:21:00.109Z,95004.00
2018-08-06T22:23:30.619Z,95003.00
2018-08-06T22:26:01.874Z,95008.00
2018-08-06T22:28:33.037Z,95007.00
2018-08-06T22:31:03.860Z,95004.00
2018-08-06T22:33:35.508Z,95007.00
2018-08-06T22:36:06.721Z,95004.00
2018-08-06T22:38:37.727Z,95005.00
2018-08-06T22:41:08.917Z,95008.00
2018-08-06T22:43:40.233Z,95006.00
2018-08-06T22:46:11.295Z,95001.00
2018-08-06T22:48:42.353Z,95001.00
2018-08-06T22:51:13.350Z,94997.00
2018-08-06T22:53:44.317Z,94998.00
2018-08-06T22:56:15.434Z,95001.00
2018-08-06T22:58:46.441Z,94997.00
2018-08-06T23:01:16.970Z,94999.00
2018-08-06T23:03:47.980Z,95001.00
2018-08-06T23:06:19.093Z,94996.00
2018-08-06T23:08:50.299Z,94996.00
2018-08-06T23:11:21.213Z,94998.00
2018-08-06T23:13:52.263Z,94994.00
2018-08-06T23:16:23.499Z,94995.00
2018-08-06T23:18:54.629Z,95001.00
2018-08-06T23:21:25.798Z,95000.00
2018-08-06T23:23:56.820Z,95001.00
2018-08-06T23:26:27.837Z,95001.00
2018-08-06T23:28:58.839Z,95001.00
2018-08-06T23:31:29.233Z,95006.00
2018-08-06T23:34:00.135Z,95002.00
2018-08-06T23:36:32.093Z,95000.00
2018-08-06T23:39:03.120Z,94999.00
2018-08-06T23:41:34.222Z,94994.00
2018-08-06T23:44:05.453Z,95000.00
2018-08-06T23:46:36.435Z,94998.00
2018-08-06T23:49:06.884Z,94995.00
2018-08-06T23:51:37.625Z,94996.00
2018-08-06T23:54:08.710Z,94994.00
2018-08-06T23:56:39.817Z,94990.00
2018-08-06T23:59:11.109Z,94992.00
